Time;durP1;ratioP1;P1;durP2;ratioP2;P2;SDS_P1;SDS_P2;PMS_P1;PMS_P2;Temp;Humidity;BMP_temperature;BMP_pressure;BME280_temperature;BME280_humidity;BME280_pressure;Samples;Min_cycle;Max_cycle;Signal;HPM_P1;HPM_P2
2021/10/11 00:00:36;;;;;;;;;73.25;64.50;;;;;;;;5137711;27;9453;-77
2021/10/11 00:03:01;;;;;;;;;71.25;58.25;;;;;;;;5137762;27;8825;-77
2021/10/11 00:05:26;;;;;;;;;70.75;60.00;;;;;;;;5120444;27;9396;-79
2021/10/11 00:07:52;;;;;;;;;73.00;61.75;;;;;;;;5139003;27;8822;-80
2021/10/11 00:10:20;;;;;;;;;72.50;62.25;;;;;;;;5137861;27;8872;-79
2021/10/11 00:12:49;;;;;;;;;71.75;61.00;;;;;;;;5137540;27;8776;-80
2021/10/11 00:15:15;;;;;;;;;73.75;64.00;;;;;;;;5138622;27;11439;-80
2021/10/11 00:17:41;;;;;;;;;74.00;60.75;;;;;;;;5138234;27;11495;-79
2021/10/11 00:20:07;;;;;;;;;77.50;68.75;;;;;;;;5138761;27;8769;-77
2021/10/11 00:22:32;;;;;;;;;77.25;65.25;;;;;;;;5138650;27;12206;-77
2021/10/11 00:24:58;;;;;;;;;73.00;61.00;;;;;;;;5138526;27;8909;-77
2021/10/11 00:27:23;;;;;;;;;74.00;64.00;;;;;;;;5138749;27;8791;-77
2021/10/11 00:29:48;;;;;;;;;73.50;65.25;;;;;;;;5143051;27;8828;-77
2021/10/11 00:32:13;;;;;;;;;72.75;63.50;;;;;;;;5158024;27;9557;-77
2021/10/11 00:34:38;;;;;;;;;73.50;63.00;;;;;;;;5159515;27;8800;-77
2021/10/11 00:37:04;;;;;;;;;73.50;62.75;;;;;;;;5159238;27;8777;-77
2021/10/11 00:39:29;;;;;;;;;76.00;70.75;;;;;;;;5159185;27;8790;-77
2021/10/11 00:41:54;;;;;;;;;73.25;62.25;;;;;;;;5159261;27;8777;-80
2021/10/11 00:44:20;;;;;;;;;71.00;59.75;;;;;;;;5159148;27;9647;-80
2021/10/11 00:46:45;;;;;;;;;75.00;66.25;;;;;;;;5146862;27;8819;-79
2021/10/11 00:49:10;;;;;;;;;76.25;67.00;;;;;;;;5136897;27;8847;-80
2021/10/11 00:51:35;;;;;;;;;74.25;63.25;;;;;;;;5138172;27;8815;-80
2021/10/11 00:54:01;;;;;;;;;73.50;63.75;;;;;;;;5138169;27;9612;-77
2021/10/11 00:56:26;;;;;;;;;73.25;62.75;;;;;;;;5138262;27;8831;-77
2021/10/11 00:58:51;;;;;;;;;75.50;65.00;;;;;;;;5138398;27;8789;-76
2021/10/11 01:01:17;;;;;;;;;73.25;63.25;;;;;;;;5138279;27;8896;-77
2021/10/11 01:03:42;;;;;;;;;71.75;60.50;;;;;;;;5138262;27;8773;-77
2021/10/11 01:06:08;;;;;;;;;72.50;60.25;;;;;;;;5138039;27;8824;-77
2021/10/11 01:08:33;;;;;;;;;72.25;59.00;;;;;;;;5137845;27;8872;-76
2021/10/11 01:10:59;;;;;;;;;72.75;61.75;;;;;;;;5138196;27;8756;-77
2021/10/11 01:13:24;;;;;;;;;75.75;67.50;;;;;;;;5137897;27;8911;-77
2021/10/11 01:15:50;;;;;;;;;72.75;62.50;;;;;;;;5138009;27;11468;-77
2021/10/11 01:18:15;;;;;;;;;74.00;63.50;;;;;;;;5136291;27;8828;-79
2021/10/11 01:20:40;;;;;;;;;73.00;62.00;;;;;;;;5137679;27;8808;-79
2021/10/11 01:23:05;;;;;;;;;75.50;66.50;;;;;;;;5136078;27;9677;-79
2021/10/11 01:25:31;;;;;;;;;73.25;63.25;;;;;;;;5137618;27;8828;-79
2021/10/11 01:27:56;;;;;;;;;73.00;65.00;;;;;;;;5137780;27;8883;-80
2021/10/11 01:30:21;;;;;;;;;72.75;59.50;;;;;;;;5145282;27;8848;-77
2021/10/11 01:32:47;;;;;;;;;72.75;63.75;;;;;;;;5158504;27;8916;-77
2021/10/11 01:35:12;;;;;;;;;69.25;58.50;;;;;;;;5158517;27;9541;-77
2021/10/11 01:37:38;;;;;;;;;74.00;65.50;;;;;;;;5158355;27;8816;-77
2021/10/11 01:40:04;;;;;;;;;72.00;61.25;;;;;;;;5158292;27;8770;-77
2021/10/11 01:42:29;;;;;;;;;68.75;58.75;;;;;;;;5158446;27;8801;-77
2021/10/11 01:44:54;;;;;;;;;70.75;58.75;;;;;;;;5156746;27;11481;-77
2021/10/11 01:47:21;;;;;;;;;70.75;58.75;;;;;;;;5157072;27;8822;-77
2021/10/11 01:49:47;;;;;;;;;75.50;62.75;;;;;;;;5158215;27;8886;-77
2021/10/11 01:52:12;;;;;;;;;74.00;67.25;;;;;;;;5158218;27;11551;-77
2021/10/11 01:54:37;;;;;;;;;77.25;72.25;;;;;;;;5156702;27;8998;-77
2021/10/11 01:57:02;;;;;;;;;76.50;68.50;;;;;;;;5158186;27;8778;-77
2021/10/11 01:59:28;;;;;;;;;75.75;68.50;;;;;;;;5158122;27;8869;-77
2021/10/11 02:01:53;;;;;;;;;72.25;61.50;;;;;;;;5144905;27;8812;-77
2021/10/11 02:04:18;;;;;;;;;76.00;66.75;;;;;;;;5137302;27;8806;-80
2021/10/11 02:06:43;;;;;;;;;72.75;62.00;;;;;;;;5137072;27;8854;-79
2021/10/11 02:09:08;;;;;;;;;75.00;68.75;;;;;;;;5135721;27;8809;-79
2021/10/11 02:11:34;;;;;;;;;72.50;60.50;;;;;;;;5137199;27;8768;-79
2021/10/11 02:13:59;;;;;;;;;75.00;64.25;;;;;;;;5137155;27;8772;-79
2021/10/11 02:16:24;;;;;;;;;76.00;65.00;;;;;;;;5137033;27;8850;-80
2021/10/11 02:18:49;;;;;;;;;76.00;67.50;;;;;;;;5136974;27;8919;-77
2021/10/11 02:21:14;;;;;;;;;69.50;57.50;;;;;;;;5137089;27;8780;-77
2021/10/11 02:23:40;;;;;;;;;70.50;60.25;;;;;;;;5136892;27;8815;-77
2021/10/11 02:26:05;;;;;;;;;69.75;59.50;;;;;;;;5136984;27;8900;-77
2021/10/11 02:28:30;;;;;;;;;70.00;59.00;;;;;;;;5137018;27;9520;-77
2021/10/11 02:30:55;;;;;;;;;72.50;61.75;;;;;;;;5149535;27;8857;-77
2021/10/11 02:33:21;;;;;;;;;72.75;61.00;;;;;;;;5160449;27;8774;-77
2021/10/11 02:35:46;;;;;;;;;71.75;60.25;;;;;;;;5159975;27;8822;-77
2021/10/11 02:38:11;;;;;;;;;68.00;55.00;;;;;;;;5159710;27;8875;-77
2021/10/11 02:40:37;;;;;;;;;70.00;58.25;;;;;;;;5159818;27;8793;-77
2021/10/11 02:43:03;;;;;;;;;70.50;60.00;;;;;;;;5159751;27;8797;-77
2021/10/11 02:45:28;;;;;;;;;70.25;59.25;;;;;;;;5159750;27;8822;-77
2021/10/11 02:47:54;;;;;;;;;68.50;55.25;;;;;;;;5139914;27;8816;-78
2021/10/11 02:50:20;;;;;;;;;74.50;64.75;;;;;;;;5140159;27;8811;-77
2021/10/11 02:52:45;;;;;;;;;71.75;60.00;;;;;;;;5140249;27;8713;-79
2021/10/11 02:55:11;;;;;;;;;71.75;60.75;;;;;;;;5138585;27;11598;-80
2021/10/11 02:57:36;;;;;;;;;72.25;64.25;;;;;;;;5138609;27;8784;-80
2021/10/11 03:00:03;;;;;;;;;71.75;60.25;;;;;;;;5138777;27;8840;-80
2021/10/11 03:02:28;;;;;;;;;67.25;52.50;;;;;;;;5138610;27;8785;-79
2021/10/11 03:04:54;;;;;;;;;68.00;56.00;;;;;;;;5138382;27;11258;-80
2021/10/11 03:07:19;;;;;;;;;67.00;56.50;;;;;;;;5138567;27;8811;-77
2021/10/11 03:09:45;;;;;;;;;69.75;57.25;;;;;;;;5138520;27;8884;-77
2021/10/11 03:12:11;;;;;;;;;66.00;53.50;;;;;;;;5138586;27;8808;-77
2021/10/11 03:14:36;;;;;;;;;63.00;50.50;;;;;;;;5138644;27;8785;-77
2021/10/11 03:17:01;;;;;;;;;68.75;58.50;;;;;;;;5138443;27;9588;-77
2021/10/11 03:19:27;;;;;;;;;67.50;53.75;;;;;;;;5139837;27;8808;-77
2021/10/11 03:21:52;;;;;;;;;64.50;51.50;;;;;;;;5139782;27;8792;-77
2021/10/11 03:24:17;;;;;;;;;66.25;53.50;;;;;;;;5138238;27;8803;-79
2021/10/11 03:26:43;;;;;;;;;63.25;51.25;;;;;;;;5139643;27;8824;-79
2021/10/11 03:29:08;;;;;;;;;67.00;55.25;;;;;;;;5139623;27;8776;-79
2021/10/11 03:31:34;;;;;;;;;69.75;55.75;;;;;;;;5158971;27;8832;-79
2021/10/11 03:33:59;;;;;;;;;66.50;52.75;;;;;;;;5158940;27;8805;-79
2021/10/11 03:36:24;;;;;;;;;65.50;51.50;;;;;;;;5158671;27;8886;-77
2021/10/11 03:38:53;;;;;;;;;73.25;59.75;;;;;;;;5158738;27;8798;-76
2021/10/11 03:41:18;;;;;;;;;68.50;56.00;;;;;;;;5158867;27;8762;-77
2021/10/11 03:43:43;;;;;;;;;68.75;54.50;;;;;;;;5157343;27;11879;-77
2021/10/11 03:46:09;;;;;;;;;68.00;53.50;;;;;;;;5158847;27;8826;-77
2021/10/11 03:48:34;;;;;;;;;70.50;58.00;;;;;;;;5160250;27;8786;-76
2021/10/11 03:50:59;;;;;;;;;66.00;54.25;;;;;;;;5160044;27;8832;-77
2021/10/11 03:53:25;;;;;;;;;64.75;51.75;;;;;;;;5159889;27;8782;-80
2021/10/11 03:55:50;;;;;;;;;67.50;56.50;;;;;;;;5160032;27;8834;-80
2021/10/11 03:58:15;;;;;;;;;67.00;53.00;;;;;;;;5160061;27;8862;-80
2021/10/11 04:00:41;;;;;;;;;68.25;55.00;;;;;;;;5159864;27;8824;-80
2021/10/11 04:03:07;;;;;;;;;68.50;56.00;;;;;;;;5158485;27;8782;-79
2021/10/11 04:05:33;;;;;;;;;68.75;54.50;;;;;;;;5158347;27;8879;-77
2021/10/11 04:08:04;;;;;;;;;66.50;53.75;;;;;;;;5158176;27;11089;-76
2021/10/11 04:10:34;;;;;;;;;69.75;55.00;;;;;;;;5159940;27;9651;-76
2021/10/11 04:13:05;;;;;;;;;68.25;54.25;;;;;;;;5158374;27;11100;-76
2021/10/11 04:15:30;;;;;;;;;66.00;53.00;;;;;;;;5159108;27;11167;-77
2021/10/11 04:17:55;;;;;;;;;68.25;56.50;;;;;;;;5126224;27;10951;-77
2021/10/11 04:20:21;;;;;;;;;68.00;55.75;;;;;;;;5138786;27;8769;-77
2021/10/11 04:22:46;;;;;;;;;69.00;56.00;;;;;;;;5136003;27;8785;-77
2021/10/11 04:25:12;;;;;;;;;68.50;57.50;;;;;;;;5137071;27;8844;-77
2021/10/11 04:27:39;;;;;;;;;64.25;52.00;;;;;;;;5138946;27;8854;-77
2021/10/11 04:30:05;;;;;;;;;63.25;52.00;;;;;;;;5145390;27;11026;-77
2021/10/11 04:32:30;;;;;;;;;66.25;53.50;;;;;;;;5159437;27;11036;-77
2021/10/11 04:34:56;;;;;;;;;62.25;50.00;;;;;;;;5159459;27;9565;-77
2021/10/11 04:37:21;;;;;;;;;64.00;51.25;;;;;;;;5159402;27;8782;-77
2021/10/11 04:39:46;;;;;;;;;63.50;51.25;;;;;;;;5159284;27;8794;-77
2021/10/11 04:42:12;;;;;;;;;53.00;45.00;;;;;;;;5159373;27;8790;-77
2021/10/11 04:44:37;;;;;;;;;61.75;48.25;;;;;;;;5159388;27;8794;-77
2021/10/11 04:47:02;;;;;;;;;62.50;51.00;;;;;;;;5151050;27;8829;-80
2021/10/11 04:49:27;;;;;;;;;61.00;49.75;;;;;;;;5116243;28;8783;-80
2021/10/11 04:51:53;;;;;;;;;62.50;50.50;;;;;;;;5115783;27;9677;-79
2021/10/11 04:54:18;;;;;;;;;61.00;49.25;;;;;;;;5117402;27;8794;-80
2021/10/11 04:56:43;;;;;;;;;59.75;48.00;;;;;;;;5117344;27;8825;-79
2021/10/11 04:59:09;;;;;;;;;57.50;46.75;;;;;;;;5116229;28;8798;-80
2021/10/11 05:01:34;;;;;;;;;61.00;50.00;;;;;;;;5117631;27;9622;-77
2021/10/11 05:03:59;;;;;;;;;59.50;46.75;;;;;;;;5117530;27;8779;-77
2021/10/11 05:06:25;;;;;;;;;61.75;49.00;;;;;;;;5117436;27;8811;-77
2021/10/11 05:08:50;;;;;;;;;61.00;48.50;;;;;;;;5115167;28;8806;-75
2021/10/11 05:11:16;;;;;;;;;63.25;51.25;;;;;;;;5115655;27;8811;-76
2021/10/11 05:13:41;;;;;;;;;62.75;50.00;;;;;;;;5116700;27;9635;-75
2021/10/11 05:16:13;;;;;;;;;62.75;49.75;;;;;;;;5117400;27;8787;-75
2021/10/11 05:18:39;;;;;;;;;60.00;47.50;;;;;;;;5117120;27;8775;-75
2021/10/11 05:21:05;;;;;;;;;60.75;48.75;;;;;;;;5115978;28;10487;-76
2021/10/11 05:23:31;;;;;;;;;58.00;44.25;;;;;;;;5115644;27;8787;-76
2021/10/11 05:25:56;;;;;;;;;54.25;44.25;;;;;;;;5115713;28;10049;-79
2021/10/11 05:28:22;;;;;;;;;57.25;45.50;;;;;;;;5117257;27;8807;-79
2021/10/11 05:30:49;;;;;;;;;56.25;44.50;;;;;;;;5141109;27;8806;-79
2021/10/11 05:33:16;;;;;;;;;56.00;44.75;;;;;;;;5158726;27;8749;-79
2021/10/11 05:35:41;;;;;;;;;54.50;43.75;;;;;;;;5158385;27;10125;-79
2021/10/11 05:38:06;;;;;;;;;36.67;33.33;;;;;;;;5156753;27;10001;-79
2021/10/11 05:40:32;;;;;;;;;44.00;37.00;;;;;;;;5157046;27;8886;-76
2021/10/11 05:42:58;;;;;;;;;39.33;34.00;;;;;;;;5158458;27;8804;-75
2021/10/11 05:45:23;;;;;;;;;34.00;31.00;;;;;;;;5158463;27;8929;-76
2021/10/11 05:47:48;;;;;;;;;38.33;34.33;;;;;;;;5158350;27;8774;-76
2021/10/11 05:50:14;;;;;;;;;35.33;28.67;;;;;;;;5156845;27;8813;-76
2021/10/11 05:52:39;;;;;;;;;28.67;26.00;;;;;;;;5158303;27;9607;-80
2021/10/11 05:55:05;;;;;;;;;28.00;26.33;;;;;;;;5158004;27;8812;-79
2021/10/11 05:57:32;;;;;;;;;30.00;26.50;;;;;;;;5156874;27;8782;-79
2021/10/11 05:59:58;;;;;;;;;27.50;26.50;;;;;;;;5156522;27;8782;-79
2021/10/11 06:02:23;;;;;;;;;23.00;22.67;;;;;;;;5147095;27;8806;-79
2021/10/11 06:04:48;;;;;;;;;24.67;24.67;;;;;;;;5132200;27;8804;-77
2021/10/11 06:07:14;;;;;;;;;25.33;24.33;;;;;;;;5136716;27;8800;-78
2021/10/11 06:09:40;;;;;;;;;23.00;21.33;;;;;;;;5139025;27;8826;-79
2021/10/11 06:12:05;;;;;;;;;24.25;21.75;;;;;;;;5141124;27;8761;-79
2021/10/11 06:14:31;;;;;;;;;26.33;24.00;;;;;;;;5139704;27;8789;-78
2021/10/11 06:16:56;;;;;;;;;25.33;24.00;;;;;;;;5139457;27;8905;-79
2021/10/11 06:19:21;;;;;;;;;19.00;19.00;;;;;;;;5138935;27;8846;-78
2021/10/11 06:21:47;;;;;;;;;16.67;14.00;;;;;;;;5139362;27;8800;-78
2021/10/11 06:24:12;;;;;;;;;18.67;17.00;;;;;;;;5140690;27;8792;-81
2021/10/11 06:26:38;;;;;;;;;15.33;15.33;;;;;;;;5139273;27;9019;-81
2021/10/11 06:29:03;;;;;;;;;19.33;17.67;;;;;;;;5139189;27;9531;-81
2021/10/11 06:31:28;;;;;;;;;19.33;19.33;;;;;;;;5157751;27;8818;-81
2021/10/11 06:33:54;;;;;;;;;15.00;14.00;;;;;;;;5161456;27;8812;-80
2021/10/11 06:36:19;;;;;;;;;14.67;13.67;;;;;;;;5161203;27;8840;-78
2021/10/11 06:38:45;;;;;;;;;17.33;17.33;;;;;;;;5161240;27;9509;-78
2021/10/11 06:41:10;;;;;;;;;19.67;17.67;;;;;;;;5161467;27;8794;-78
2021/10/11 06:43:36;;;;;;;;;18.67;18.67;;;;;;;;5159941;27;8802;-78
2021/10/11 06:46:01;;;;;;;;;18.33;17.33;;;;;;;;5161155;27;8892;-78
2021/10/11 06:48:26;;;;;;;;;17.00;15.00;;;;;;;;5161232;27;8862;-78
2021/10/11 06:50:52;;;;;;;;;17.00;16.67;;;;;;;;5161061;27;8819;-81
2021/10/11 06:53:17;;;;;;;;;22.67;19.33;;;;;;;;5162110;27;8778;-78
2021/10/11 06:55:42;;;;;;;;;16.67;16.67;;;;;;;;5161165;27;8812;-86
2021/10/11 06:58:22;;;;;;;;;18.33;18.33;;;;;;;;5149890;27;8791;-87
2021/10/11 07:00:47;;;;;;;;;13.00;13.00;;;;;;;;5118245;28;8779;-85
2021/10/11 07:03:13;;;;;;;;;15.33;13.67;;;;;;;;5121056;27;8797;-89
2021/10/11 07:05:38;;;;;;;;;16.33;15.33;;;;;;;;5126542;27;8865;-85
2021/10/11 07:08:09;;;;;;;;;16.67;16.67;;;;;;;;5119183;27;8819;-84
2021/10/11 07:10:35;;;;;;;;;13.50;13.50;;;;;;;;5117967;28;8814;-85
2021/10/11 07:13:08;;;;;;;;;30.25;29.00;;;;;;;;5119205;27;8865;-85
2021/10/11 07:15:34;;;;;;;;;22.25;21.25;;;;;;;;5117653;28;8783;-85
2021/10/11 07:18:02;;;;;;;;;17.33;16.67;;;;;;;;5117576;27;8814;-85
2021/10/11 07:20:28;;;;;;;;;17.25;15.25;;;;;;;;5118341;28;8743;-84
2021/10/11 07:23:16;;;;;;;;;15.00;12.33;;;;;;;;5118359;28;9664;-85
2021/10/11 07:25:42;;;;;;;;;15.00;13.50;;;;;;;;5117940;27;8814;-85
2021/10/11 07:28:18;;;;;;;;;14.33;14.33;;;;;;;;5119306;27;8815;-85
2021/10/11 07:30:44;;;;;;;;;14.75;13.25;;;;;;;;5123140;27;8862;-85
2021/10/11 07:33:15;;;;;;;;;14.33;13.67;;;;;;;;5138508;27;8947;-84
2021/10/11 07:35:41;;;;;;;;;19.25;16.50;;;;;;;;5138498;27;9776;-84
2021/10/11 07:38:06;;;;;;;;;16.00;14.50;;;;;;;;5137981;27;8784;-84
2021/10/11 07:40:32;;;;;;;;;14.33;13.00;;;;;;;;5138306;27;8800;-84
2021/10/11 07:42:57;;;;;;;;;18.00;15.33;;;;;;;;5138481;27;8812;-84
2021/10/11 07:45:22;;;;;;;;;21.00;16.00;;;;;;;;5139458;27;8848;-84
2021/10/11 07:47:48;;;;;;;;;18.00;17.00;;;;;;;;5139603;27;8788;-84
2021/10/11 07:50:14;;;;;;;;;20.67;19.67;;;;;;;;5137963;27;9662;-84
2021/10/11 07:52:39;;;;;;;;;23.33;20.67;;;;;;;;5143419;27;8860;-83
2021/10/11 07:55:04;;;;;;;;;16.67;16.00;;;;;;;;5140895;27;8781;-83
2021/10/11 08:00:30;;;;;;;;;21.25;18.75;;;;;;;;5140972;27;8788;-84
2021/10/11 08:02:55;;;;;;;;;20.75;20.00;;;;;;;;5139266;27;8777;-84
2021/10/11 08:05:23;;;;;;;;;16.00;16.00;;;;;;;;5139257;27;8808;-84
2021/10/11 08:07:48;;;;;;;;;15.25;14.50;;;;;;;;5139214;27;8784;-82
2021/10/11 08:10:13;;;;;;;;;14.00;14.00;;;;;;;;5138642;27;8805;-82
2021/10/11 08:12:39;;;;;;;;;8.00;8.00;;;;;;;;5138902;27;8780;-82
2021/10/11 08:15:05;;;;;;;;;8.33;7.33;;;;;;;;5139159;27;8780;-82
2021/10/11 08:17:30;;;;;;;;;8.25;6.25;;;;;;;;5139045;27;8879;-86
2021/10/11 08:19:55;;;;;;;;;5.00;5.00;;;;;;;;5138814;27;8807;-84
2021/10/11 08:22:24;;;;;;;;;7.33;6.67;;;;;;;;5138882;27;8833;-84
2021/10/11 08:24:51;;;;;;;;;6.75;6.00;;;;;;;;5138590;27;8757;-84
2021/10/11 08:27:19;;;;;;;;;8.50;7.00;;;;;;;;5139110;27;8769;-83
2021/10/11 08:29:52;;;;;;;;;7.25;6.50;;;;;;;;5142191;27;8735;-84
2021/10/11 08:32:21;;;;;;;;;8.75;7.75;;;;;;;;5159745;27;9624;-83
2021/10/11 08:34:46;;;;;;;;;5.50;5.50;;;;;;;;5158211;27;9643;-83
2021/10/11 08:37:14;;;;;;;;;5.00;5.00;;;;;;;;5159498;27;8770;-83
2021/10/11 08:39:41;;;;;;;;;3.00;3.00;;;;;;;;5159277;27;8780;-82
2021/10/11 08:42:06;;;;;;;;;4.50;4.50;;;;;;;;5159560;27;8872;-81
2021/10/11 08:44:32;;;;;;;;;3.00;3.00;;;;;;;;5159358;27;8782;-85
2021/10/11 08:46:58;;;;;;;;;10.00;7.00;;;;;;;;5158867;27;8891;-81
2021/10/11 08:49:24;;;;;;;;;5.25;4.25;;;;;;;;5157953;27;8888;-77
2021/10/11 08:51:49;;;;;;;;;7.00;6.33;;;;;;;;5157727;27;8892;-77
2021/10/11 08:54:14;;;;;;;;;8.00;6.67;;;;;;;;5158616;27;8773;-77
2021/10/11 08:56:40;;;;;;;;;6.67;5.33;;;;;;;;5159471;27;9577;-77
2021/10/11 08:59:05;;;;;;;;;6.00;5.00;;;;;;;;5159797;27;8808;-79
2021/10/11 09:01:30;;;;;;;;;10.33;9.33;;;;;;;;5159491;27;8824;-79
2021/10/11 09:03:55;;;;;;;;;3.33;3.33;;;;;;;;5159568;27;8816;-78
2021/10/11 09:06:21;;;;;;;;;4.67;4.00;;;;;;;;5160303;27;8874;-78
2021/10/11 09:08:48;;;;;;;;;7.00;6.00;;;;;;;;5164785;27;8770;-77
2021/10/11 09:11:14;;;;;;;;;5.75;4.25;;;;;;;;5159384;27;8869;-76
2021/10/11 09:13:41;;;;;;;;;3.67;3.33;;;;;;;;5158981;27;8882;-75
2021/10/11 09:16:08;;;;;;;;;4.00;4.00;;;;;;;;5159289;27;9726;-77
2021/10/11 09:18:36;;;;;;;;;3.00;2.75;;;;;;;;5158488;27;9746;-78
2021/10/11 09:21:01;;;;;;;;;3.50;3.50;;;;;;;;5158432;27;8781;-79
2021/10/11 09:23:29;;;;;;;;;5.33;5.00;;;;;;;;5158472;27;8773;-77
2021/10/11 09:25:54;;;;;;;;;4.25;4.00;;;;;;;;5158603;27;8778;-77
2021/10/11 09:28:20;;;;;;;;;4.00;4.00;;;;;;;;5158742;27;9710;-77
2021/10/11 09:30:48;;;;;;;;;8.33;8.00;;;;;;;;5132585;27;8816;-77
2021/10/11 09:33:18;;;;;;;;;5.25;5.25;;;;;;;;5134958;27;8906;-76
2021/10/11 09:35:44;;;;;;;;;7.25;7.00;;;;;;;;5135954;27;8798;-82
2021/10/11 09:38:18;;;;;;;;;8.25;7.00;;;;;;;;5126081;27;8795;-82
2021/10/11 09:40:43;;;;;;;;;3.25;3.25;;;;;;;;5127105;27;8801;-80
2021/10/11 09:43:16;;;;;;;;;4.00;4.00;;;;;;;;5131719;27;8819;-80
2021/10/11 09:45:41;;;;;;;;;11.50;10.75;;;;;;;;5135310;27;8889;-85
2021/10/11 09:48:07;;;;;;;;;8.00;7.00;;;;;;;;5128652;27;8792;-83
2021/10/11 09:50:33;;;;;;;;;3.33;2.67;;;;;;;;5123059;27;8830;-85
2021/10/11 09:52:58;;;;;;;;;3.00;3.00;;;;;;;;5118234;27;8802;-85
2021/10/11 09:55:23;;;;;;;;;7.00;3.67;;;;;;;;5137075;27;8900;-83
2021/10/11 09:57:49;;;;;;;;;8.00;7.00;;;;;;;;5129414;27;9291;-82
2021/10/11 10:00:14;;;;;;;;;6.33;6.33;;;;;;;;5124380;27;8800;-82
2021/10/11 10:02:40;;;;;;;;;3.00;3.00;;;;;;;;5116242;27;8872;-86
2021/10/11 10:05:12;;;;;;;;;7.00;5.75;;;;;;;;5116739;27;8875;-87
2021/10/11 10:07:40;;;;;;;;;3.00;3.00;;;;;;;;5116526;27;8851;-82
2021/10/11 10:10:05;;;;;;;;;3.50;3.50;;;;;;;;5117232;27;8752;-83
2021/10/11 10:12:32;;;;;;;;;2.33;1.33;;;;;;;;5120787;27;8880;-83
2021/10/11 10:15:04;;;;;;;;;3.50;3.00;;;;;;;;5136562;27;8851;-84
2021/10/11 10:17:30;;;;;;;;;3.00;3.00;;;;;;;;5138247;27;8879;-84
2021/10/11 10:20:04;;;;;;;;;3.25;3.00;;;;;;;;5135805;27;8820;-86
2021/10/11 10:22:29;;;;;;;;;6.75;4.75;;;;;;;;5135822;27;9400;-84
2021/10/11 10:25:02;;;;;;;;;8.33;7.67;;;;;;;;5137137;27;8865;-85
2021/10/11 10:27:33;;;;;;;;;3.00;3.00;;;;;;;;5137258;27;8765;-82
2021/10/11 10:29:59;;;;;;;;;3.00;3.00;;;;;;;;5131984;27;9709;-84
2021/10/11 10:32:24;;;;;;;;;3.00;3.00;;;;;;;;5135514;27;8941;-86
2021/10/11 10:34:59;;;;;;;;;5.00;3.00;;;;;;;;5136761;27;8929;-82
2021/10/11 10:37:32;;;;;;;;;3.00;3.00;;;;;;;;5137341;27;8773;-85
2021/10/11 10:40:05;;;;;;;;;3.25;3.25;;;;;;;;5135427;27;8781;-84
2021/10/11 10:42:31;;;;;;;;;2.00;1.00;;;;;;;;5135342;27;8725;-84
2021/10/11 10:44:57;;;;;;;;;4.00;4.00;;;;;;;;5136574;27;9531;-84
2021/10/11 10:47:36;;;;;;;;;4.25;3.00;;;;;;;;5136859;27;8765;-86
2021/10/11 10:50:03;;;;;;;;;2.25;2.25;;;;;;;;5136821;27;8753;-85
2021/10/11 10:52:28;;;;;;;;;1.00;1.00;;;;;;;;5136615;27;8784;-86
2021/10/11 10:54:55;;;;;;;;;3.33;3.33;;;;;;;;5139758;27;8780;-84
2021/10/11 10:57:23;;;;;;;;;2.00;2.00;;;;;;;;5129986;27;8803;-84
2021/10/11 10:59:49;;;;;;;;;26.25;22.50;;;;;;;;5121630;27;8798;-81
2021/10/11 11:02:14;;;;;;;;;3.00;3.00;;;;;;;;5119481;27;8778;-82
2021/10/11 11:04:50;;;;;;;;;5.00;3.67;;;;;;;;5118109;28;9516;-85
2021/10/11 11:07:21;;;;;;;;;5.25;4.75;;;;;;;;5122639;27;8796;-85
2021/10/11 11:09:46;;;;;;;;;2.50;2.50;;;;;;;;5134973;27;8857;-85
2021/10/11 11:12:12;;;;;;;;;4.33;2.33;;;;;;;;5139507;27;8784;-86
2021/10/11 11:14:41;;;;;;;;;8.75;8.75;;;;;;;;5139781;27;8792;-85
2021/10/11 11:17:13;;;;;;;;;2.75;2.75;;;;;;;;5136912;27;8862;-84
2021/10/11 11:19:39;;;;;;;;;12.75;10.75;;;;;;;;5126431;27;8803;-86
2021/10/11 11:22:04;;;;;;;;;4.75;4.25;;;;;;;;5126550;27;9726;-85
2021/10/11 11:24:30;;;;;;;;;4.00;3.00;;;;;;;;5128762;27;8815;-82
2021/10/11 11:26:55;;;;;;;;;3.33;3.33;;;;;;;;5136635;27;8813;-85
2021/10/11 11:29:20;;;;;;;;;6.50;5.50;;;;;;;;5139896;27;8765;-85
2021/10/11 11:31:49;;;;;;;;;5.33;5.00;;;;;;;;5160526;27;8786;-84
2021/10/11 11:34:14;;;;;;;;;5.25;3.75;;;;;;;;5160457;27;8766;-86
2021/10/11 11:36:49;;;;;;;;;3.67;2.67;;;;;;;;5133361;27;8887;-84
2021/10/11 11:39:15;;;;;;;;;4.00;4.00;;;;;;;;5118713;27;8751;-86
2021/10/11 11:41:48;;;;;;;;;6.67;6.67;;;;;;;;5118992;27;8771;-86
2021/10/11 11:44:20;;;;;;;;;9.75;8.25;;;;;;;;5117123;28;8799;-85
2021/10/11 11:46:46;;;;;;;;;5.25;4.00;;;;;;;;5118881;27;8787;-86
2021/10/11 11:49:11;;;;;;;;;23.67;19.67;;;;;;;;5118912;28;8883;-85
2021/10/11 11:51:36;;;;;;;;;7.33;6.67;;;;;;;;5120018;27;8793;-85
2021/10/11 11:54:01;;;;;;;;;1.00;1.00;;;;;;;;5118620;27;8845;-85
2021/10/11 11:56:27;;;;;;;;;2.00;2.00;;;;;;;;5118912;27;8809;-87
2021/10/11 11:58:52;;;;;;;;;4.00;4.00;;;;;;;;5118784;27;9526;-84
2021/10/11 12:01:19;;;;;;;;;3.67;3.33;;;;;;;;5128182;27;8897;-85
2021/10/11 12:03:47;;;;;;;;;3.75;3.25;;;;;;;;5137622;27;8785;-85
2021/10/11 12:06:12;;;;;;;;;5.25;4.25;;;;;;;;5137909;27;9682;-87
2021/10/11 12:08:40;;;;;;;;;4.67;3.67;;;;;;;;5137792;27;8855;-86
2021/10/11 12:11:06;;;;;;;;;3.50;3.50;;;;;;;;5134046;27;8782;-86
2021/10/11 12:13:33;;;;;;;;;5.00;5.00;;;;;;;;5137486;27;8821;-85
2021/10/11 12:15:59;;;;;;;;;7.00;4.00;;;;;;;;5138663;27;8793;-85
2021/10/11 12:18:33;;;;;;;;;2.75;2.25;;;;;;;;5139167;27;8729;-86
2021/10/11 12:20:58;;;;;;;;;3.00;3.00;;;;;;;;5118920;27;8799;-86
2021/10/11 12:23:34;;;;;;;;;3.00;3.00;;;;;;;;5117764;27;8810;-84
2021/10/11 12:26:01;;;;;;;;;2.50;2.50;;;;;;;;5118132;27;8766;-82
2021/10/11 12:28:28;;;;;;;;;5.00;4.00;;;;;;;;5118062;27;8811;-84
2021/10/11 12:30:58;;;;;;;;;3.33;2.33;;;;;;;;5145148;27;8885;-84
2021/10/11 12:33:33;;;;;;;;;3.00;2.25;;;;;;;;5159284;27;8703;-84
2021/10/11 12:35:59;;;;;;;;;3.25;2.75;;;;;;;;5157768;27;8727;-84
2021/10/11 12:38:33;;;;;;;;;6.25;5.00;;;;;;;;5159046;27;8766;-85
2021/10/11 12:41:05;;;;;;;;;2.25;1.75;;;;;;;;5159262;27;8746;-86
2021/10/11 12:43:31;;;;;;;;;3.25;3.25;;;;;;;;5158882;27;9692;-86
2021/10/11 12:46:05;;;;;;;;;3.00;2.67;;;;;;;;5158984;27;8841;-85
2021/10/11 12:48:31;;;;;;;;;3.00;3.00;;;;;;;;5159287;27;8773;-85
2021/10/11 12:50:56;;;;;;;;;3.67;3.00;;;;;;;;5158845;27;8896;-86
2021/10/11 12:53:25;;;;;;;;;2.67;2.67;;;;;;;;5158770;27;8786;-83
2021/10/11 12:55:50;;;;;;;;;8.00;5.75;;;;;;;;5156786;27;8793;-84
2021/10/11 12:58:15;;;;;;;;;4.00;2.00;;;;;;;;5138676;27;8773;-86
2021/10/11 13:00:41;;;;;;;;;4.67;4.00;;;;;;;;5138916;27;8831;-85
2021/10/11 13:03:07;;;;;;;;;4.00;3.67;;;;;;;;5136778;27;8812;-84
2021/10/11 13:05:33;;;;;;;;;3.50;3.25;;;;;;;;5138120;27;8793;-85
2021/10/11 13:07:58;;;;;;;;;24.00;21.00;;;;;;;;5135699;27;8781;-83
2021/10/11 13:10:23;;;;;;;;;10.00;9.67;;;;;;;;5136201;27;8840;-85
2021/10/11 13:12:49;;;;;;;;;3.33;3.33;;;;;;;;5137781;27;8910;-84
2021/10/11 13:15:14;;;;;;;;;4.33;4.33;;;;;;;;5135166;27;8805;-84
2021/10/11 13:17:39;;;;;;;;;4.33;4.00;;;;;;;;5136154;27;9565;-83
2021/10/11 13:20:05;;;;;;;;;3.00;2.00;;;;;;;;5136022;27;8906;-84
2021/10/11 13:22:30;;;;;;;;;3.00;3.00;;;;;;;;5137690;27;8897;-84
2021/10/11 13:24:56;;;;;;;;;6.67;4.00;;;;;;;;5137901;27;8887;-84
2021/10/11 13:27:21;;;;;;;;;16.00;14.67;;;;;;;;5137697;27;8797;-85
2021/10/11 14:29:01;;;;;;;;;5.25;5.00;;;;;;;;5138890;27;8722;-85
2021/10/11 14:31:36;;;;;;;;;5.75;4.50;;;;;;;;5144184;27;8773;-83
2021/10/11 16:01:30;;;;;;;;;10.67;10.67;;;;;;;;5124499;27;8834;-82
2021/10/11 16:03:56;;;;;;;;;10.25;10.00;;;;;;;;5120010;27;8780;-82
2021/10/11 16:06:22;;;;;;;;;11.33;10.33;;;;;;;;5120181;27;8815;-82
2021/10/11 16:08:48;;;;;;;;;10.75;10.75;;;;;;;;5118309;27;8860;-82
2021/10/11 16:11:13;;;;;;;;;9.00;9.00;;;;;;;;5122206;27;8779;-83
2021/10/11 16:13:38;;;;;;;;;12.67;11.00;;;;;;;;5130367;27;8800;-82
2021/10/11 16:16:04;;;;;;;;;9.33;9.33;;;;;;;;5120184;27;8983;-82
2021/10/11 16:18:32;;;;;;;;;8.67;8.67;;;;;;;;5116981;27;8810;-82
2021/10/11 16:21:01;;;;;;;;;11.50;11.25;;;;;;;;5119405;27;8769;-83
2021/10/11 16:23:27;;;;;;;;;11.00;10.75;;;;;;;;5117081;27;8783;-83
2021/10/11 16:25:52;;;;;;;;;12.00;11.67;;;;;;;;5117115;27;8818;-83
2021/10/11 16:28:17;;;;;;;;;11.33;11.00;;;;;;;;5119999;27;8799;-86
2021/10/11 16:30:43;;;;;;;;;12.00;12.00;;;;;;;;5127134;27;8841;-83
2021/10/11 16:33:08;;;;;;;;;12.33;11.00;;;;;;;;5121210;27;8810;-83
2021/10/11 16:35:33;;;;;;;;;11.33;10.67;;;;;;;;5119096;27;8803;-82
2021/10/11 16:37:59;;;;;;;;;13.67;11.67;;;;;;;;5118885;27;8830;-83
2021/10/11 16:40:24;;;;;;;;;11.67;10.00;;;;;;;;5116574;27;8821;-82
2021/10/11 16:42:49;;;;;;;;;10.67;9.33;;;;;;;;5118520;27;8827;-82
2021/10/11 16:45:14;;;;;;;;;11.00;11.00;;;;;;;;5117776;27;8875;-84
2021/10/11 16:47:40;;;;;;;;;12.33;12.33;;;;;;;;5115825;27;8803;-81
2021/10/11 16:50:05;;;;;;;;;12.67;12.67;;;;;;;;5115360;27;8867;-80
2021/10/11 16:52:30;;;;;;;;;10.67;10.00;;;;;;;;5118489;27;8875;-80
2021/10/11 16:54:56;;;;;;;;;10.00;10.00;;;;;;;;5127702;27;8875;-80
2021/10/11 16:57:23;;;;;;;;;10.00;10.00;;;;;;;;5127936;27;8783;-81
2021/10/11 16:59:49;;;;;;;;;10.75;10.75;;;;;;;;5119674;27;8856;-81
2021/10/11 17:02:14;;;;;;;;;9.25;8.25;;;;;;;;5117705;27;8828;-78